createdAt,value
2023-11-10T00:00:38.146Z,2.47
2023-11-10T00:03:07.570Z,2.33
2023-11-10T00:05:36.685Z,2.05
2023-11-10T00:08:06.996Z,1.77
2023-11-10T00:10:36.000Z,1.90
2023-11-10T00:13:05.078Z,5.53
2023-11-10T00:15:35.750Z,1.63
2023-11-10T00:18:05.131Z,1.75
2023-11-10T00:20:37.493Z,2.05
2023-11-10T00:23:08.726Z,3.20
2023-11-10T00:25:37.428Z,2.05
2023-11-10T00:28:06.536Z,2.38
2023-11-10T00:30:38.232Z,2.72
2023-11-10T00:33:07.220Z,2.85
2023-11-10T00:35:35.684Z,2.30
2023-11-10T00:38:04.899Z,2.35
2023-11-10T00:40:33.457Z,3.22
2023-11-10T00:43:01.838Z,4.13
2023-11-10T00:45:30.451Z,1.35
2023-11-10T00:48:01.661Z,2.53
2023-11-10T00:50:30.333Z,2.08
2023-11-10T00:52:58.733Z,1.67
2023-11-10T00:55:27.282Z,2.88
2023-11-10T00:57:56.035Z,2.97
2023-11-10T01:00:24.433Z,1.88
2023-11-10T01:02:55.833Z,2.40
2023-11-10T01:05:26.185Z,1.70
2023-11-10T01:07:54.561Z,2.47
2023-11-10T01:10:23.368Z,2.15
2023-11-10T01:12:51.894Z,2.40
2023-11-10T01:15:21.722Z,2.15
2023-11-10T01:17:50.323Z,2.65
2023-11-10T01:20:19.671Z,2.03
2023-11-10T01:22:49.566Z,1.45
2023-11-10T01:25:18.034Z,1.20
2023-11-10T01:27:46.422Z,2.60
2023-11-10T01:30:15.673Z,2.65
2023-11-10T01:32:44.891Z,2.35
2023-11-10T01:35:13.547Z,2.85
2023-11-10T01:37:43.597Z,1.58
2023-11-10T01:40:15.389Z,1.92
2023-11-10T01:42:43.841Z,1.33
2023-11-10T01:45:13.418Z,1.20
2023-11-10T01:47:42.448Z,2.63
2023-11-10T01:50:12.997Z,3.92
2023-11-10T01:52:43.114Z,1.63
2023-11-10T01:55:18.075Z,2.17
2023-11-10T01:57:48.730Z,5.00
2023-11-10T02:00:20.909Z,1.15
2023-11-10T02:02:49.583Z,1.88
2023-11-10T02:05:19.010Z,2.65
2023-11-10T02:07:48.361Z,2.05
2023-11-10T02:10:17.294Z,1.30
2023-11-10T02:12:53.877Z,2.67
2023-11-10T02:15:22.688Z,2.15
2023-11-10T02:17:51.394Z,2.35
2023-11-10T02:20:20.275Z,2.38
2023-11-10T02:22:50.300Z,2.38
2023-11-10T02:25:20.933Z,1.77
2023-11-10T02:27:51.754Z,1.25
2023-11-10T02:30:20.790Z,1.30
2023-11-10T02:32:49.422Z,1.40
2023-11-10T02:35:17.989Z,1.52
2023-11-10T02:37:46.370Z,1.33
2023-11-10T02:40:15.079Z,1.65
2023-11-10T02:42:45.045Z,1.70
2023-11-10T02:45:16.260Z,1.20
2023-11-10T02:47:45.649Z,2.50
2023-11-10T02:50:14.425Z,1.50
2023-11-10T02:52:42.936Z,1.95
2023-11-10T02:55:11.283Z,2.00
2023-11-10T02:57:39.710Z,1.30
2023-11-10T03:00:11.879Z,2.42
2023-11-10T03:02:40.310Z,1.50
2023-11-10T03:05:09.660Z,1.33
2023-11-10T03:07:37.738Z,1.95
2023-11-10T03:10:09.772Z,1.88
2023-11-10T03:12:38.176Z,1.15
2023-11-10T03:15:09.463Z,2.00
2023-11-10T03:17:38.163Z,2.40
2023-11-10T03:20:10.604Z,1.35
2023-11-10T03:22:39.432Z,1.40
2023-11-10T03:25:09.142Z,1.50
2023-11-10T03:27:38.059Z,2.13
2023-11-10T03:30:10.186Z,1.45
2023-11-10T03:32:38.677Z,1.15
2023-11-10T03:35:08.801Z,2.40
2023-11-10T03:37:38.707Z,1.35
2023-11-10T03:40:11.418Z,3.08
2023-11-10T03:42:39.927Z,3.33
2023-11-10T03:45:12.065Z,1.63
2023-11-10T03:47:41.504Z,1.73
2023-11-10T03:50:11.078Z,1.70
2023-11-10T03:52:39.540Z,1.17
2023-11-10T03:55:08.542Z,1.50
2023-11-10T03:57:36.964Z,2.13
2023-11-10T04:00:06.794Z,1.33
2023-11-10T04:02:36.767Z,1.65
2023-11-10T04:05:05.751Z,2.35
2023-11-10T04:07:34.286Z,1.13
2023-11-10T04:10:02.954Z,1.17
2023-11-10T04:12:31.397Z,1.70
2023-11-10T04:14:59.823Z,1.98
2023-11-10T04:17:28.394Z,1.10
2023-11-10T04:19:58.263Z,1.80
2023-11-10T04:22:26.665Z,1.27
2023-11-10T04:24:56.036Z,1.42
2023-11-10T04:27:25.132Z,1.52
2023-11-10T04:29:53.594Z,2.25
2023-11-10T04:32:23.153Z,1.80
2023-11-10T04:34:52.747Z,1.40
2023-11-10T04:37:22.775Z,1.00
2023-11-10T04:39:53.477Z,1.08
2023-11-10T04:42:21.991Z,2.05
2023-11-10T04:44:50.401Z,0.95
2023-11-10T04:47:18.764Z,0.90
2023-11-10T04:49:47.107Z,2.58
2023-11-10T04:52:16.560Z,2.47
2023-11-10T04:54:48.028Z,1.02
2023-11-10T04:57:17.651Z,1.00
2023-11-10T04:59:48.627Z,1.40
2023-11-10T05:02:17.023Z,1.92
2023-11-10T05:04:45.642Z,1.65
2023-11-10T05:07:14.571Z,1.10
2023-11-10T05:09:43.094Z,2.75
2023-11-10T05:12:13.080Z,1.25
2023-11-10T05:14:44.081Z,2.63
2023-11-10T05:17:12.554Z,1.75
2023-11-10T05:19:40.943Z,1.73
2023-11-10T05:22:12.057Z,1.90
2023-11-10T05:24:43.484Z,1.55
2023-11-10T05:27:13.450Z,2.15
2023-11-10T05:29:41.925Z,3.58
2023-11-10T05:32:11.230Z,1.45
2023-11-10T05:34:39.596Z,1.05
2023-11-10T05:37:11.338Z,1.92
2023-11-10T05:39:39.846Z,2.10
2023-11-10T05:42:08.535Z,2.35
2023-11-10T05:44:38.403Z,1.33
2023-11-10T05:47:07.324Z,1.20
2023-11-10T05:49:36.096Z,1.45
2023-11-10T05:52:05.949Z,1.00
2023-11-10T05:54:34.459Z,1.08
2023-11-10T05:57:03.143Z,0.90
2023-11-10T05:59:31.876Z,0.85
2023-11-10T06:02:01.980Z,1.65
2023-11-10T06:04:35.103Z,2.30
2023-11-10T06:07:05.253Z,1.80
2023-11-10T06:09:34.886Z,0.75
2023-11-10T06:12:03.858Z,1.27
2023-11-10T06:14:32.761Z,0.90
2023-11-10T06:17:02.556Z,1.10
2023-11-10T06:19:30.963Z,1.00
2023-11-10T06:21:59.769Z,2.38
2023-11-10T06:24:29.475Z,1.70
2023-11-10T06:26:58.250Z,1.88
2023-11-10T06:29:26.817Z,1.00
2023-11-10T06:31:55.532Z,1.00
2023-11-10T06:34:25.890Z,1.02
2023-11-10T06:36:54.511Z,1.17
2023-11-10T06:39:23.058Z,3.33
2023-11-10T06:41:51.406Z,1.67
2023-11-10T06:44:20.790Z,1.45
2023-11-10T06:46:49.498Z,1.85
2023-11-10T06:49:18.097Z,2.00
2023-11-10T06:51:48.494Z,1.65
2023-11-10T06:54:17.066Z,1.65
2023-11-10T06:56:45.596Z,1.08
2023-11-10T06:59:14.377Z,1.45
2023-11-10T07:01:43.162Z,1.17
2023-11-10T07:04:12.207Z,5.35
2023-11-10T07:06:41.481Z,3.90
2023-11-10T07:09:13.800Z,1.10
2023-11-10T07:11:42.620Z,1.98
2023-11-10T07:14:11.118Z,1.58
2023-11-10T07:16:40.017Z,3.28
2023-11-10T07:19:09.131Z,5.13
2023-11-10T07:21:38.471Z,6.28
2023-11-10T07:24:08.222Z,3.17
2023-11-10T07:26:37.941Z,4.35
2023-11-10T07:29:06.614Z,3.95
2023-11-10T07:31:35.033Z,3.00
2023-11-10T07:34:05.576Z,4.03
2023-11-10T07:36:34.255Z,2.78
2023-11-10T07:39:02.825Z,3.50
2023-11-10T07:41:31.245Z,2.50
2023-11-10T07:44:00.927Z,4.95
2023-11-10T07:46:29.518Z,3.63
2023-11-10T07:48:58.440Z,1.58
2023-11-10T07:51:27.330Z,2.45
2023-11-10T07:53:55.866Z,1.52
2023-11-10T07:56:24.351Z,1.90
2023-11-10T07:58:52.902Z,4.95
2023-11-10T08:01:22.695Z,3.20
2023-11-10T08:03:51.192Z,1.70
2023-11-10T08:06:19.704Z,2.67
2023-11-10T08:08:48.169Z,1.60
2023-11-10T08:11:18.249Z,1.15
2023-11-10T08:13:46.752Z,1.10
2023-11-10T08:16:15.815Z,1.92
2023-11-10T08:18:45.709Z,1.27
2023-11-10T08:21:18.906Z,0.95
2023-11-10T08:23:47.649Z,4.32
2023-11-10T08:26:16.142Z,2.30
2023-11-10T08:28:44.643Z,1.25
2023-11-10T08:31:13.063Z,1.45
2023-11-10T08:33:41.758Z,0.80
2023-11-10T08:36:11.504Z,1.35
2023-11-10T08:38:39.902Z,1.45
2023-11-10T08:41:08.245Z,1.48
2023-11-10T08:43:36.736Z,1.70
2023-11-10T08:46:05.603Z,1.60
2023-11-10T08:48:34.097Z,2.72
2023-11-10T08:51:04.016Z,1.33
2023-11-10T08:53:35.427Z,1.25
2023-11-10T08:56:06.301Z,1.77
2023-11-10T08:58:34.857Z,0.93
2023-11-10T09:01:03.428Z,1.95
2023-11-10T09:03:31.956Z,1.35
2023-11-10T09:06:01.001Z,2.95
2023-11-10T09:08:29.433Z,2.80
2023-11-10T09:10:59.635Z,1.10
2023-11-10T09:13:27.966Z,1.10
2023-11-10T09:16:02.080Z,2.13
2023-11-10T09:18:31.320Z,2.08
2023-11-10T09:20:59.880Z,1.40
2023-11-10T09:23:29.987Z,1.10
2023-11-10T09:25:59.840Z,3.05
2023-11-10T09:28:28.645Z,3.90
2023-11-10T09:30:57.133Z,1.13
2023-11-10T09:33:25.665Z,2.67
2023-11-10T09:35:54.019Z,1.70
2023-11-10T09:38:22.521Z,1.65
2023-11-10T09:40:52.677Z,2.47
2023-11-10T09:43:25.695Z,1.25
2023-11-10T09:45:57.015Z,1.13
2023-11-10T09:48:25.938Z,1.08
2023-11-10T09:50:57.727Z,3.33
2023-11-10T09:53:28.140Z,2.85
2023-11-10T09:55:57.157Z,0.90
2023-11-10T09:58:28.260Z,4.43
2023-11-10T10:00:59.441Z,2.20
2023-11-10T10:03:30.286Z,1.65
2023-11-10T10:06:01.503Z,2.97
2023-11-10T10:08:29.852Z,5.72
2023-11-10T10:10:58.198Z,96.07
2023-11-10T10:13:29.434Z,95.15
2023-11-10T10:16:09.020Z,40.28
2023-11-10T10:18:39.495Z,14.13
2023-11-10T10:21:08.086Z,9.18
2023-11-10T10:23:37.328Z,12.25
2023-11-10T10:26:09.026Z,11.45
2023-11-10T10:28:40.411Z,8.73
2023-11-10T10:31:09.181Z,7.97
2023-11-10T10:33:38.133Z,6.03
2023-11-10T10:36:07.558Z,8.00
2023-11-10T10:38:40.038Z,7.70
2023-11-10T10:41:12.235Z,7.85
2023-11-10T10:43:55.111Z,6.18
2023-11-10T10:46:34.733Z,6.93
2023-11-10T10:49:05.648Z,5.47
2023-11-10T10:51:37.979Z,6.30
2023-11-10T10:54:08.976Z,7.38
2023-11-10T10:56:44.962Z,5.50
2023-11-10T10:59:17.897Z,7.07
2023-11-10T11:01:50.451Z,7.43
2023-11-10T11:04:31.095Z,6.18
2023-11-10T11:07:31.880Z,6.97
2023-11-10T11:10:42.459Z,6.55
2023-11-10T11:13:45.965Z,6.30
2023-11-10T11:16:35.429Z,5.20
2023-11-10T11:19:25.053Z,5.07
2023-11-10T11:21:54.925Z,6.47
2023-11-10T11:24:24.445Z,5.28
2023-11-10T11:26:59.898Z,4.50
2023-11-10T11:29:36.060Z,5.35
2023-11-10T11:32:09.727Z,4.85
2023-11-10T11:34:38.593Z,5.05
2023-11-10T11:37:08.431Z,5.93
2023-11-10T11:39:37.264Z,5.90
2023-11-10T11:42:07.313Z,5.78
2023-11-10T11:44:37.089Z,4.75
2023-11-10T11:47:12.255Z,5.43
2023-11-10T11:49:41.213Z,6.13
2023-11-10T11:52:12.622Z,4.97
2023-11-10T11:54:41.390Z,5.25
2023-11-10T11:57:09.840Z,6.70
2023-11-10T11:59:39.210Z,5.78
2023-11-10T12:02:10.893Z,5.70
2023-11-10T12:04:39.528Z,4.82
2023-11-10T12:07:08.046Z,6.65
2023-11-10T12:09:36.475Z,4.18
2023-11-10T12:12:05.840Z,4.82
2023-11-10T12:14:35.018Z,4.78
2023-11-10T12:17:04.161Z,4.50
2023-11-10T12:19:34.306Z,5.05
2023-11-10T12:22:02.870Z,4.53
2023-11-10T12:24:32.914Z,5.47
2023-11-10T12:27:01.850Z,4.97
2023-11-10T12:29:31.849Z,4.40
2023-11-10T12:32:01.050Z,6.15
2023-11-10T12:34:30.135Z,4.40
2023-11-10T12:37:05.657Z,3.60
2023-11-10T12:39:36.744Z,3.95
2023-11-10T12:42:07.085Z,4.57
2023-11-10T12:44:35.796Z,5.13
2023-11-10T12:47:08.085Z,4.93
2023-11-10T12:49:36.774Z,5.40
2023-11-10T12:52:11.451Z,5.18
2023-11-10T12:54:43.488Z,4.88
2023-11-10T12:57:13.081Z,7.57
2023-11-10T12:59:43.107Z,5.13
2023-11-10T13:02:13.168Z,4.43
2023-11-10T13:04:42.234Z,4.90
2023-11-10T13:07:13.058Z,3.20
2023-11-10T13:09:41.598Z,5.68
2023-11-10T13:12:12.645Z,5.75
2023-11-10T13:14:41.018Z,5.05
2023-11-10T13:17:09.557Z,4.43
2023-11-10T13:19:38.427Z,4.90
2023-11-10T13:22:07.647Z,4.05
2023-11-10T13:24:37.509Z,4.18
2023-11-10T13:27:06.955Z,4.60
2023-11-10T13:29:35.509Z,4.65
2023-11-10T13:32:04.497Z,3.88
2023-11-10T13:34:33.969Z,3.83
2023-11-10T13:37:06.773Z,4.43
2023-11-10T13:39:36.758Z,4.20
2023-11-10T13:42:07.559Z,3.35
2023-11-10T13:44:36.077Z,5.00
2023-11-10T13:47:04.845Z,4.38
2023-11-10T13:49:33.260Z,5.85
2023-11-10T13:52:02.099Z,2.95
2023-11-10T13:54:30.824Z,4.85
2023-11-10T13:57:00.641Z,2.75
2023-11-10T13:59:29.062Z,4.60
2023-11-10T14:01:57.666Z,3.40
2023-11-10T14:04:26.300Z,3.33
2023-11-10T14:06:55.050Z,5.00
2023-11-10T14:09:23.525Z,4.63
2023-11-10T14:11:51.985Z,14.55
2023-11-10T14:14:21.646Z,4.15
2023-11-10T14:16:50.179Z,4.15
2023-11-10T14:19:19.901Z,4.38
2023-11-10T14:21:48.275Z,3.67
2023-11-10T14:24:17.170Z,5.07
2023-11-10T14:26:46.180Z,3.75
2023-11-10T14:29:14.705Z,4.43
2023-11-10T14:31:44.777Z,3.63
2023-11-10T14:34:14.633Z,4.05
2023-11-10T14:36:43.427Z,4.18
2023-11-10T14:39:17.240Z,4.13
2023-11-10T14:41:52.269Z,4.10
2023-11-10T14:44:20.778Z,4.07
2023-11-10T14:46:53.462Z,3.28
2023-11-10T14:49:22.027Z,4.95
2023-11-10T14:51:57.722Z,5.22
2023-11-10T14:54:26.451Z,3.13
2023-11-10T14:56:54.832Z,3.10
2023-11-10T14:59:23.256Z,3.50
2023-11-10T15:01:53.471Z,4.10
2023-11-10T15:04:22.647Z,4.28
2023-11-10T15:06:53.736Z,5.10
2023-11-10T15:09:22.503Z,3.92
2023-11-10T15:11:50.969Z,3.42
2023-11-10T15:14:19.524Z,4.72
2023-11-10T15:16:48.350Z,4.38
2023-11-10T15:19:18.892Z,2.80
2023-11-10T15:21:47.644Z,3.28
2023-11-10T15:24:16.744Z,3.78
2023-11-10T15:26:45.357Z,3.65
2023-11-10T15:29:13.678Z,3.17
2023-11-10T15:31:43.463Z,3.95
2023-11-10T15:34:14.174Z,3.95
2023-11-10T15:36:51.742Z,4.70
2023-11-10T15:39:21.865Z,2.88
2023-11-10T15:41:50.497Z,3.05
2023-11-10T15:44:19.087Z,4.75
2023-11-10T15:46:47.772Z,3.10
2023-11-10T15:49:16.350Z,4.03
2023-11-10T15:51:56.222Z,4.22
2023-11-10T15:54:29.020Z,4.28
2023-11-10T15:57:00.318Z,3.00
2023-11-10T15:59:29.237Z,3.35
2023-11-10T16:01:58.649Z,4.00
2023-11-10T16:04:27.801Z,4.45
2023-11-10T16:06:57.930Z,3.70
2023-11-10T16:09:26.785Z,4.35
2023-11-10T16:11:55.809Z,4.28
2023-11-10T16:14:27.577Z,6.22
2023-11-10T16:16:56.839Z,3.20
2023-11-10T16:19:25.674Z,3.80
2023-11-10T16:21:54.208Z,3.88
2023-11-10T16:24:26.828Z,4.85
2023-11-10T16:26:55.563Z,3.83
2023-11-10T16:29:24.931Z,3.85
2023-11-10T16:31:54.914Z,7.32
2023-11-10T16:34:23.464Z,54.05
2023-11-10T16:36:54.793Z,59.05
2023-11-10T16:39:25.416Z,103.07
2023-11-10T16:41:53.900Z,135.23
2023-11-10T16:44:22.729Z,141.82
2023-11-10T16:46:53.831Z,163.05
2023-11-10T16:49:24.076Z,181.57
2023-11-10T16:51:54.091Z,295.67
2023-11-10T16:54:24.004Z,449.77
2023-11-10T16:56:52.837Z,428.55
2023-11-10T16:59:21.258Z,407.33
2023-11-10T17:01:49.856Z,520.47
2023-11-10T17:04:19.183Z,496.60
2023-11-10T17:06:48.539Z,496.30
2023-11-10T17:09:17.098Z,456.15
2023-11-10T17:11:47.341Z,389.42
2023-11-10T17:14:16.006Z,327.00
2023-11-10T17:16:44.612Z,304.70
2023-11-10T17:19:13.536Z,268.70
2023-11-10T17:21:41.949Z,249.82
2023-11-10T17:24:11.515Z,222.57
2023-11-10T17:26:39.898Z,247.43
2023-11-10T17:29:09.939Z,221.43
2023-11-10T17:31:38.826Z,184.32
2023-11-10T17:34:07.461Z,151.38
2023-11-10T17:36:35.946Z,119.43
2023-11-10T17:39:05.372Z,109.15
2023-11-10T17:41:34.038Z,83.78
2023-11-10T17:44:02.456Z,86.38
2023-11-10T17:46:32.458Z,69.03
2023-11-10T17:49:00.843Z,62.33
2023-11-10T17:51:29.279Z,58.95
2023-11-10T17:53:57.644Z,52.38
2023-11-10T17:56:26.431Z,43.95
2023-11-10T17:58:54.893Z,34.08
2023-11-10T18:01:23.348Z,30.67
2023-11-10T18:03:53.296Z,25.13
2023-11-10T18:06:21.828Z,26.60
2023-11-10T18:08:50.177Z,27.60
2023-11-10T18:11:25.361Z,22.17
2023-11-10T18:13:54.437Z,21.25
2023-11-10T18:16:23.132Z,20.25
2023-11-10T18:18:54.859Z,17.77
2023-11-10T18:21:23.534Z,17.38
2023-11-10T18:23:52.020Z,19.40
2023-11-10T18:26:21.451Z,15.70
2023-11-10T18:28:52.032Z,17.88
2023-11-10T18:31:20.682Z,17.13
2023-11-10T18:33:49.400Z,17.88
2023-11-10T18:36:19.351Z,18.48
2023-11-10T18:38:47.852Z,18.65
2023-11-10T18:41:16.307Z,21.23
2023-11-10T18:43:46.358Z,18.63
2023-11-10T18:46:15.718Z,21.38
2023-11-10T18:48:44.073Z,18.95
2023-11-10T18:51:13.632Z,20.42
2023-11-10T18:53:43.530Z,18.35
2023-11-10T18:56:12.268Z,19.70
2023-11-10T18:58:40.885Z,17.80
2023-11-10T19:01:09.501Z,23.05
2023-11-10T19:03:38.996Z,18.92
2023-11-10T19:06:08.848Z,18.33
2023-11-10T19:08:39.012Z,15.40
2023-11-10T19:11:09.280Z,19.80
2023-11-10T19:13:37.853Z,16.63
2023-11-10T19:16:07.166Z,18.67
2023-11-10T19:18:36.073Z,14.93
2023-11-10T19:21:05.129Z,16.83
2023-11-10T19:23:34.372Z,15.38
2023-11-10T19:26:03.323Z,16.23
2023-11-10T19:28:34.295Z,13.52
2023-11-10T19:31:03.965Z,14.85
2023-11-10T19:33:33.486Z,15.98
2023-11-10T19:36:02.068Z,14.43
2023-11-10T19:38:30.496Z,13.60
2023-11-10T19:40:58.939Z,12.50
2023-11-10T19:43:27.367Z,14.20
2023-11-10T19:45:57.050Z,15.85
2023-11-10T19:48:25.470Z,14.48
2023-11-10T19:50:53.923Z,12.57
2023-11-10T19:53:24.786Z,16.45
2023-11-10T19:55:53.553Z,12.88
2023-11-10T20:03:26.585Z,14.27
2023-11-10T20:05:55.366Z,11.07
2023-11-10T20:08:24.202Z,10.98
2023-11-10T20:10:52.801Z,15.05
2023-11-10T20:13:22.254Z,10.00
2023-11-10T20:15:50.702Z,13.02
2023-11-10T20:18:19.135Z,11.25
2023-11-10T20:20:49.016Z,10.55
2023-11-10T20:23:18.172Z,9.55
2023-11-10T20:25:46.752Z,12.10
2023-11-10T20:28:15.207Z,10.48
2023-11-10T20:30:43.793Z,10.63
2023-11-10T20:33:12.266Z,10.50
2023-11-10T20:35:40.831Z,10.75
2023-11-10T20:38:12.234Z,11.38
2023-11-10T20:40:40.842Z,11.35
2023-11-10T20:43:09.202Z,10.60
2023-11-10T20:45:39.142Z,12.50
2023-11-10T20:48:09.520Z,9.82
2023-11-10T20:50:39.283Z,10.80
2023-11-10T20:53:10.614Z,7.38
2023-11-10T20:55:39.966Z,3.15
2023-11-10T20:58:10.932Z,2.40
2023-11-10T21:00:39.814Z,2.55
2023-11-10T21:03:12.194Z,2.47
2023-11-10T21:05:47.558Z,3.45
2023-11-10T21:08:17.476Z,3.30
2023-11-10T21:10:46.041Z,4.18
2023-11-10T21:13:15.218Z,3.67
2023-11-10T21:15:47.108Z,2.38
2023-11-10T21:18:19.505Z,3.35
2023-11-10T21:20:48.540Z,3.38
2023-11-10T21:23:18.379Z,3.28
2023-11-10T21:25:47.363Z,3.42
2023-11-10T21:28:16.498Z,2.92
2023-11-10T21:30:50.310Z,3.28
2023-11-10T21:33:23.138Z,4.07
2023-11-10T21:35:51.856Z,2.80
2023-11-10T21:38:25.322Z,2.50
2023-11-10T21:40:54.699Z,3.45
2023-11-10T21:43:23.253Z,2.95
2023-11-10T21:45:51.768Z,3.95
2023-11-10T21:48:21.897Z,2.92
2023-11-10T21:50:50.351Z,4.15
2023-11-10T21:53:19.110Z,1.98
2023-11-10T21:55:48.977Z,3.45
2023-11-10T21:58:19.582Z,3.03
2023-11-10T22:00:48.562Z,4.07
2023-11-10T22:03:18.725Z,3.85
2023-11-10T22:05:47.710Z,3.95
2023-11-10T22:08:16.544Z,2.45
2023-11-10T22:10:45.418Z,2.83
2023-11-10T22:13:15.341Z,2.55
2023-11-10T22:15:43.850Z,4.88
2023-11-10T22:18:13.105Z,4.38
2023-11-10T22:20:42.413Z,2.80
2023-11-10T22:23:10.849Z,2.10
2023-11-10T22:25:39.534Z,2.92
2023-11-10T22:28:08.609Z,2.00
2023-11-10T22:30:38.745Z,3.47
2023-11-10T22:33:07.997Z,3.20
2023-11-10T22:35:36.427Z,2.55
2023-11-10T22:38:04.770Z,3.35
2023-11-10T22:40:33.264Z,2.50
2023-11-10T22:43:01.585Z,3.70
2023-11-10T22:45:30.910Z,6.20
2023-11-10T22:48:00.794Z,3.22
2023-11-10T22:50:31.742Z,1.67
2023-11-10T22:53:00.291Z,2.03
2023-11-10T22:55:28.796Z,1.90
2023-11-10T22:57:57.177Z,1.95
2023-11-10T23:00:32.916Z,2.20
2023-11-10T23:03:07.283Z,3.55
2023-11-10T23:05:36.578Z,2.13
2023-11-10T23:08:07.087Z,2.67
2023-11-10T23:10:35.595Z,2.78
2023-11-10T23:13:05.929Z,1.90
2023-11-10T23:15:34.574Z,3.03
2023-11-10T23:18:04.665Z,2.72
2023-11-10T23:20:34.827Z,1.90
2023-11-10T23:23:05.351Z,2.15
2023-11-10T23:25:34.656Z,2.03
2023-11-10T23:28:05.691Z,2.90
2023-11-10T23:30:35.262Z,1.67
2023-11-10T23:33:07.778Z,2.40
2023-11-10T23:35:40.197Z,2.60
2023-11-10T23:38:12.949Z,2.45
2023-11-10T23:40:41.914Z,2.58
2023-11-10T23:43:11.869Z,1.60
2023-11-10T23:45:43.125Z,3.63
2023-11-10T23:48:13.271Z,1.63
2023-11-10T23:50:42.167Z,2.10
2023-11-10T23:53:10.960Z,1.85
2023-11-10T23:55:39.754Z,3.03
2023-11-10T23:58:08.345Z,1.95
